sensor_id;sensor_type;location;lat;lon;timestamp;pressure;altitude;pressure_sealevel;temperature;humidity
46087;BME280;31824;49.648;8.640;2024-02-16T00:01:20;100128.03;;;11.70;100.00
46087;BME280;31824;49.648;8.640;2024-02-16T00:04:22;100127.50;;;11.74;100.00
46087;BME280;31824;49.648;8.640;2024-02-16T00:07:24;100130.09;;;11.64;100.00
46087;BME280;31824;49.648;8.640;2024-02-16T00:10:27;100128.69;;;11.57;100.00
46087;BME280;31824;49.648;8.640;2024-02-16T00:13:29;100129.72;;;11.59;100.00
46087;BME280;31824;49.648;8.640;2024-02-16T00:16:31;100124.28;;;11.47;100.00
46087;BME280;31824;49.648;8.640;2024-02-16T00:19:33;100122.75;;;11.49;100.00
46087;BME280;31824;49.648;8.640;2024-02-16T00:22:34;100109.94;;;11.34;100.00
46087;BME280;31824;49.648;8.640;2024-02-16T00:25:38;100104.84;;;11.56;100.00
46087;BME280;31824;49.648;8.640;2024-02-16T00:28:41;100102.22;;;11.87;100.00
46087;BME280;31824;49.648;8.640;2024-02-16T00:31:43;100101.59;;;12.10;100.00
46087;BME280;31824;49.648;8.640;2024-02-16T00:34:45;100107.09;;;12.23;100.00
46087;BME280;31824;49.648;8.640;2024-02-16T00:37:47;100107.34;;;12.26;100.00
46087;BME280;31824;49.648;8.640;2024-02-16T00:40:51;100101.47;;;12.19;100.00
46087;BME280;31824;49.648;8.640;2024-02-16T00:43:52;100096.19;;;12.19;100.00
46087;BME280;31824;49.648;8.640;2024-02-16T00:46:54;100100.16;;;12.13;100.00
46087;BME280;31824;49.648;8.640;2024-02-16T00:49:56;100090.28;;;12.11;100.00
46087;BME280;31824;49.648;8.640;2024-02-16T00:52:58;100078.66;;;12.09;100.00
46087;BME280;31824;49.648;8.640;2024-02-16T00:56:03;100090.69;;;12.05;100.00
46087;BME280;31824;49.648;8.640;2024-02-16T00:59:05;100075.13;;;12.19;100.00
46087;BME280;31824;49.648;8.640;2024-02-16T01:02:07;100069.25;;;12.43;100.00
46087;BME280;31824;49.648;8.640;2024-02-16T01:05:08;100061.84;;;12.49;100.00
46087;BME280;31824;49.648;8.640;2024-02-16T01:08:12;100070.41;;;12.90;100.00
46087;BME280;31824;49.648;8.640;2024-02-16T01:11:15;100073.50;;;12.74;100.00
46087;BME280;31824;49.648;8.640;2024-02-16T01:14:17;100076.22;;;12.86;100.00
46087;BME280;31824;49.648;8.640;2024-02-16T01:17:18;100085.00;;;12.96;100.00
46087;BME280;31824;49.648;8.640;2024-02-16T01:20:20;100076.88;;;13.38;100.00
46087;BME280;31824;49.648;8.640;2024-02-16T01:23:22;100085.63;;;13.26;100.00
46087;BME280;31824;49.648;8.640;2024-02-16T01:26:25;100079.47;;;12.93;100.00
46087;BME280;31824;49.648;8.640;2024-02-16T01:29:26;100091.19;;;12.97;100.00
46087;BME280;31824;49.648;8.640;2024-02-16T01:32:28;100088.59;;;12.87;100.00
46087;BME280;31824;49.648;8.640;2024-02-16T01:35:30;100091.06;;;12.95;100.00
46087;BME280;31824;49.648;8.640;2024-02-16T01:38:32;100096.44;;;12.64;100.00
46087;BME280;31824;49.648;8.640;2024-02-16T01:41:38;100098.84;;;12.51;100.00
46087;BME280;31824;49.648;8.640;2024-02-16T01:44:40;100104.06;;;12.39;100.00
46087;BME280;31824;49.648;8.640;2024-02-16T01:47:43;100100.94;;;12.23;100.00
46087;BME280;31824;49.648;8.640;2024-02-16T01:50:45;100104.50;;;12.03;100.00
46087;BME280;31824;49.648;8.640;2024-02-16T01:53:49;100116.03;;;11.84;100.00
46087;BME280;31824;49.648;8.640;2024-02-16T01:56:54;100105.91;;;11.58;100.00
46087;BME280;31824;49.648;8.640;2024-02-16T01:59:57;100108.53;;;11.68;100.00
46087;BME280;31824;49.648;8.640;2024-02-16T02:02:59;100104.34;;;11.80;100.00
46087;BME280;31824;49.648;8.640;2024-02-16T02:06:01;100104.34;;;11.70;100.00
46087;BME280;31824;49.648;8.640;2024-02-16T02:09:03;100104.47;;;11.72;100.00
46087;BME280;31824;49.648;8.640;2024-02-16T02:12:07;100109.34;;;11.77;100.00
46087;BME280;31824;49.648;8.640;2024-02-16T02:15:09;100106.84;;;11.69;100.00
46087;BME280;31824;49.648;8.640;2024-02-16T02:18:11;100105.78;;;11.56;100.00
46087;BME280;31824;49.648;8.640;2024-02-16T02:21:13;100104.44;;;11.51;100.00
46087;BME280;31824;49.648;8.640;2024-02-16T02:24:17;100102.22;;;11.45;100.00
46087;BME280;31824;49.648;8.640;2024-02-16T02:27:19;100097.47;;;11.41;100.00
46087;BME280;31824;49.648;8.640;2024-02-16T02:30:21;100093.00;;;11.40;100.00
46087;BME280;31824;49.648;8.640;2024-02-16T02:33:23;100083.94;;;11.47;100.00
46087;BME280;31824;49.648;8.640;2024-02-16T02:36:25;100083.13;;;11.38;100.00
46087;BME280;31824;49.648;8.640;2024-02-16T02:39:28;100081.16;;;11.45;100.00
46087;BME280;31824;49.648;8.640;2024-02-16T02:42:30;100076.94;;;11.47;100.00
46087;BME280;31824;49.648;8.640;2024-02-16T02:45:32;100075.78;;;11.44;100.00
46087;BME280;31824;49.648;8.640;2024-02-16T02:48:33;100082.84;;;11.45;100.00
46087;BME280;31824;49.648;8.640;2024-02-16T02:51:35;100074.97;;;11.35;100.00
46087;BME280;31824;49.648;8.640;2024-02-16T02:54:38;100071.41;;;11.34;100.00
46087;BME280;31824;49.648;8.640;2024-02-16T02:57:40;100076.28;;;11.29;100.00
46087;BME280;31824;49.648;8.640;2024-02-16T03:00:42;100073.13;;;11.23;100.00
46087;BME280;31824;49.648;8.640;2024-02-16T03:03:45;100074.94;;;11.14;100.00
46087;BME280;31824;49.648;8.640;2024-02-16T03:06:51;100072.31;;;11.14;100.00
46087;BME280;31824;49.648;8.640;2024-02-16T03:09:54;100075.19;;;11.17;100.00
46087;BME280;31824;49.648;8.640;2024-02-16T03:12:56;100064.69;;;11.17;100.00
46087;BME280;31824;49.648;8.640;2024-02-16T03:15:57;100058.47;;;11.06;100.00
46087;BME280;31824;49.648;8.640;2024-02-16T03:18:59;100067.44;;;11.19;100.00
46087;BME280;31824;49.648;8.640;2024-02-16T03:22:02;100072.19;;;11.12;100.00
46087;BME280;31824;49.648;8.640;2024-02-16T03:25:05;100066.63;;;11.09;100.00
46087;BME280;31824;49.648;8.640;2024-02-16T03:28:09;100076.13;;;11.18;100.00
46087;BME280;31824;49.648;8.640;2024-02-16T03:31:16;100081.09;;;11.14;100.00
46087;BME280;31824;49.648;8.640;2024-02-16T03:34:18;100079.91;;;11.11;100.00
46087;BME280;31824;49.648;8.640;2024-02-16T03:37:20;100090.41;;;11.11;100.00
46087;BME280;31824;49.648;8.640;2024-02-16T03:40:24;100082.44;;;11.20;100.00
46087;BME280;31824;49.648;8.640;2024-02-16T03:43:26;100085.97;;;11.10;100.00
46087;BME280;31824;49.648;8.640;2024-02-16T03:46:27;100081.06;;;11.04;100.00
46087;BME280;31824;49.648;8.640;2024-02-16T03:49:29;100089.22;;;10.97;100.00
46087;BME280;31824;49.648;8.640;2024-02-16T03:52:31;100083.38;;;10.80;100.00
46087;BME280;31824;49.648;8.640;2024-02-16T03:55:34;100091.00;;;10.88;100.00
46087;BME280;31824;49.648;8.640;2024-02-16T03:58:38;100091.00;;;10.77;100.00
46087;BME280;31824;49.648;8.640;2024-02-16T04:01:39;100086.97;;;10.91;100.00
46087;BME280;31824;49.648;8.640;2024-02-16T04:04:43;100098.47;;;11.12;100.00
46087;BME280;31824;49.648;8.640;2024-02-16T04:07:45;100089.94;;;11.25;100.00
46087;BME280;31824;49.648;8.640;2024-02-16T04:10:48;100095.38;;;11.37;100.00
46087;BME280;31824;49.648;8.640;2024-02-16T04:13:50;100095.50;;;11.39;100.00
46087;BME280;31824;49.648;8.640;2024-02-16T04:16:52;100105.47;;;11.32;100.00
46087;BME280;31824;49.648;8.640;2024-02-16T04:19:54;100100.41;;;11.15;100.00
46087;BME280;31824;49.648;8.640;2024-02-16T04:22:56;100090.06;;;11.27;100.00
46087;BME280;31824;49.648;8.640;2024-02-16T04:25:58;100099.81;;;11.28;100.00
46087;BME280;31824;49.648;8.640;2024-02-16T04:29:00;100095.75;;;11.31;100.00
46087;BME280;31824;49.648;8.640;2024-02-16T04:32:02;100102.44;;;11.28;100.00
46087;BME280;31824;49.648;8.640;2024-02-16T04:35:05;100095.97;;;11.24;100.00
46087;BME280;31824;49.648;8.640;2024-02-16T04:38:07;100102.47;;;11.38;100.00
46087;BME280;31824;49.648;8.640;2024-02-16T04:41:10;100106.53;;;11.45;100.00
46087;BME280;31824;49.648;8.640;2024-02-16T04:44:11;100103.47;;;11.20;100.00
46087;BME280;31824;49.648;8.640;2024-02-16T04:47:14;100100.63;;;11.37;100.00
46087;BME280;31824;49.648;8.640;2024-02-16T04:50:16;100099.31;;;11.53;100.00
46087;BME280;31824;49.648;8.640;2024-02-16T04:53:18;100094.47;;;11.57;100.00
46087;BME280;31824;49.648;8.640;2024-02-16T04:56:21;100089.59;;;11.62;100.00
46087;BME280;31824;49.648;8.640;2024-02-16T04:59:24;100088.28;;;11.57;100.00
46087;BME280;31824;49.648;8.640;2024-02-16T05:02:26;100090.63;;;11.64;100.00
46087;BME280;31824;49.648;8.640;2024-02-16T05:05:28;100090.25;;;11.59;100.00
46087;BME280;31824;49.648;8.640;2024-02-16T05:08:29;100088.28;;;11.46;100.00
46087;BME280;31824;49.648;8.640;2024-02-16T05:11:33;100103.66;;;11.62;100.00
46087;BME280;31824;49.648;8.640;2024-02-16T05:14:35;100091.03;;;11.58;100.00
46087;BME280;31824;49.648;8.640;2024-02-16T05:17:37;100091.97;;;11.38;100.00
46087;BME280;31824;49.648;8.640;2024-02-16T05:20:40;100088.38;;;11.38;100.00
46087;BME280;31824;49.648;8.640;2024-02-16T05:23:42;100087.19;;;11.34;100.00
46087;BME280;31824;49.648;8.640;2024-02-16T05:26:45;100089.81;;;11.34;100.00
46087;BME280;31824;49.648;8.640;2024-02-16T05:29:47;100095.50;;;11.59;100.00
46087;BME280;31824;49.648;8.640;2024-02-16T05:32:49;100101.56;;;11.48;100.00
46087;BME280;31824;49.648;8.640;2024-02-16T05:35:51;100096.91;;;11.25;100.00
46087;BME280;31824;49.648;8.640;2024-02-16T05:38:57;100096.25;;;11.17;100.00
46087;BME280;31824;49.648;8.640;2024-02-16T05:42:09;100095.03;;;11.13;100.00
46087;BME280;31824;49.648;8.640;2024-02-16T05:45:11;100096.50;;;11.10;100.00
46087;BME280;31824;49.648;8.640;2024-02-16T05:48:12;100091.44;;;11.03;100.00
46087;BME280;31824;49.648;8.640;2024-02-16T05:51:15;100101.38;;;10.86;100.00
46087;BME280;31824;49.648;8.640;2024-02-16T05:54:16;100103.09;;;10.86;100.00
46087;BME280;31824;49.648;8.640;2024-02-16T05:57:20;100102.16;;;10.85;100.00
46087;BME280;31824;49.648;8.640;2024-02-16T06:00:21;100117.59;;;11.01;100.00
46087;BME280;31824;49.648;8.640;2024-02-16T06:03:23;100113.94;;;10.99;100.00
46087;BME280;31824;49.648;8.640;2024-02-16T06:06:25;100113.13;;;11.00;100.00
46087;BME280;31824;49.648;8.640;2024-02-16T06:09:27;100116.56;;;11.09;100.00
46087;BME280;31824;49.648;8.640;2024-02-16T06:12:37;100119.56;;;11.43;100.00
46087;BME280;31824;49.648;8.640;2024-02-16T06:15:40;100122.19;;;11.43;100.00
46087;BME280;31824;49.648;8.640;2024-02-16T06:18:41;100111.53;;;11.31;100.00
46087;BME280;31824;49.648;8.640;2024-02-16T06:21:44;100119.69;;;11.35;100.00
46087;BME280;31824;49.648;8.640;2024-02-16T06:24:45;100125.75;;;11.54;100.00
46087;BME280;31824;49.648;8.640;2024-02-16T06:27:49;100116.28;;;11.66;100.00
46087;BME280;31824;49.648;8.640;2024-02-16T06:30:51;100132.88;;;11.76;100.00
46087;BME280;31824;49.648;8.640;2024-02-16T06:33:53;100130.16;;;11.85;100.00
46087;BME280;31824;49.648;8.640;2024-02-16T06:36:55;100143.03;;;11.71;100.00
46087;BME280;31824;49.648;8.640;2024-02-16T06:39:57;100149.88;;;11.90;100.00
46087;BME280;31824;49.648;8.640;2024-02-16T06:43:00;100155.97;;;11.99;100.00
46087;BME280;31824;49.648;8.640;2024-02-16T06:46:01;100156.09;;;12.01;100.00
46087;BME280;31824;49.648;8.640;2024-02-16T06:49:03;100155.19;;;12.00;100.00
46087;BME280;31824;49.648;8.640;2024-02-16T06:52:05;100162.38;;;11.92;100.00
46087;BME280;31824;49.648;8.640;2024-02-16T06:55:07;100163.84;;;11.89;100.00
46087;BME280;31824;49.648;8.640;2024-02-16T06:58:11;100169.75;;;11.86;100.00
46087;BME280;31824;49.648;8.640;2024-02-16T07:04:33;100172.69;;;11.99;100.00
46087;BME280;31824;49.648;8.640;2024-02-16T07:07:35;100165.28;;;11.85;100.00
46087;BME280;31824;49.648;8.640;2024-02-16T07:10:37;100173.63;;;12.00;100.00
46087;BME280;31824;49.648;8.640;2024-02-16T07:13:40;100181.78;;;12.13;100.00
46087;BME280;31824;49.648;8.640;2024-02-16T07:16:42;100182.44;;;12.11;100.00
46087;BME280;31824;49.648;8.640;2024-02-16T07:19:45;100186.91;;;12.12;100.00
46087;BME280;31824;49.648;8.640;2024-02-16T07:24:18;100192.69;;;12.18;100.00
46087;BME280;31824;49.648;8.640;2024-02-16T07:27:21;100204.56;;;12.23;100.00
46087;BME280;31824;49.648;8.640;2024-02-16T07:30:25;100209.41;;;12.29;100.00
46087;BME280;31824;49.648;8.640;2024-02-16T07:33:45;100223.25;;;12.26;100.00
46087;BME280;31824;49.648;8.640;2024-02-16T07:36:52;100222.59;;;12.19;100.00
46087;BME280;31824;49.648;8.640;2024-02-16T07:40:00;100226.13;;;12.09;100.00
46087;BME280;31824;49.648;8.640;2024-02-16T07:43:02;100222.97;;;12.13;100.00
46087;BME280;31824;49.648;8.640;2024-02-16T07:46:07;100223.66;;;12.10;100.00
46087;BME280;31824;49.648;8.640;2024-02-16T07:49:09;100232.47;;;12.11;100.00
46087;BME280;31824;49.648;8.640;2024-02-16T07:52:13;100230.88;;;12.13;100.00
46087;BME280;31824;49.648;8.640;2024-02-16T07:55:16;100229.16;;;12.24;100.00
46087;BME280;31824;49.648;8.640;2024-02-16T07:58:22;100237.63;;;12.30;100.00
46087;BME280;31824;49.648;8.640;2024-02-16T08:01:24;100231.03;;;12.35;100.00
46087;BME280;31824;49.648;8.640;2024-02-16T08:04:26;100231.13;;;12.47;100.00
46087;BME280;31824;49.648;8.640;2024-02-16T08:07:27;100229.41;;;12.58;100.00
46087;BME280;31824;49.648;8.640;2024-02-16T08:10:31;100232.19;;;12.70;100.00
46087;BME280;31824;49.648;8.640;2024-02-16T08:13:32;100226.63;;;12.77;100.00
46087;BME280;31824;49.648;8.640;2024-02-16T08:16:34;100234.41;;;12.86;100.00
46087;BME280;31824;49.648;8.640;2024-02-16T08:19:37;100235.84;;;12.92;100.00
46087;BME280;31824;49.648;8.640;2024-02-16T08:22:39;100242.91;;;13.04;100.00
46087;BME280;31824;49.648;8.640;2024-02-16T08:25:42;100248.97;;;13.13;100.00
46087;BME280;31824;49.648;8.640;2024-02-16T08:28:44;100240.88;;;13.22;100.00
46087;BME280;31824;49.648;8.640;2024-02-16T08:31:47;100237.31;;;13.31;100.00
46087;BME280;31824;49.648;8.640;2024-02-16T08:34:49;100243.09;;;13.38;100.00
46087;BME280;31824;49.648;8.640;2024-02-16T08:37:52;100244.63;;;13.46;100.00
46087;BME280;31824;49.648;8.640;2024-02-16T08:40:55;100244.22;;;13.51;100.00
46087;BME280;31824;49.648;8.640;2024-02-16T08:43:56;100242.88;;;13.57;100.00
46087;BME280;31824;49.648;8.640;2024-02-16T08:46:58;100238.78;;;13.60;100.00
46087;BME280;31824;49.648;8.640;2024-02-16T08:50:00;100256.31;;;13.60;100.00
46087;BME280;31824;49.648;8.640;2024-02-16T08:53:02;100252.66;;;13.58;100.00
46087;BME280;31824;49.648;8.640;2024-02-16T08:56:09;100251.75;;;13.57;100.00
46087;BME280;31824;49.648;8.640;2024-02-16T08:59:10;100257.13;;;13.59;100.00
46087;BME280;31824;49.648;8.640;2024-02-16T09:02:12;100251.84;;;13.59;100.00
46087;BME280;31824;49.648;8.640;2024-02-16T09:05:14;100253.13;;;13.64;100.00
46087;BME280;31824;49.648;8.640;2024-02-16T09:08:16;100248.00;;;13.65;100.00
46087;BME280;31824;49.648;8.640;2024-02-16T09:11:19;100259.72;;;13.69;100.00
46087;BME280;31824;49.648;8.640;2024-02-16T09:14:21;100258.13;;;13.71;100.00
46087;BME280;31824;49.648;8.640;2024-02-16T09:17:23;100262.63;;;13.72;100.00
46087;BME280;31824;49.648;8.640;2024-02-16T09:20:25;100265.09;;;13.71;100.00
46087;BME280;31824;49.648;8.640;2024-02-16T09:23:27;100270.91;;;13.77;100.00
46087;BME280;31824;49.648;8.640;2024-02-16T09:26:30;100266.28;;;13.74;100.00
46087;BME280;31824;49.648;8.640;2024-02-16T09:29:33;100282.13;;;13.74;100.00
46087;BME280;31824;49.648;8.640;2024-02-16T09:32:35;100279.91;;;13.68;100.00
46087;BME280;31824;49.648;8.640;2024-02-16T09:35:37;100275.44;;;13.67;100.00
46087;BME280;31824;49.648;8.640;2024-02-16T09:38:39;100282.44;;;13.67;100.00
46087;BME280;31824;49.648;8.640;2024-02-16T09:41:42;100280.59;;;13.66;100.00
46087;BME280;31824;49.648;8.640;2024-02-16T09:44:45;100283.97;;;13.75;100.00
46087;BME280;31824;49.648;8.640;2024-02-16T09:47:47;100299.91;;;13.87;100.00
46087;BME280;31824;49.648;8.640;2024-02-16T09:51:04;100301.59;;;13.87;100.00
46087;BME280;31824;49.648;8.640;2024-02-16T09:54:06;100298.91;;;13.97;100.00
46087;BME280;31824;49.648;8.640;2024-02-16T09:57:11;100296.84;;;13.93;100.00
46087;BME280;31824;49.648;8.640;2024-02-16T10:00:13;100303.13;;;13.95;100.00
46087;BME280;31824;49.648;8.640;2024-02-16T10:03:22;100310.91;;;14.04;100.00
46087;BME280;31824;49.648;8.640;2024-02-16T10:06:25;100312.91;;;14.18;100.00
46087;BME280;31824;49.648;8.640;2024-02-16T10:09:28;100328.38;;;14.35;100.00
46087;BME280;31824;49.648;8.640;2024-02-16T10:12:35;100324.72;;;14.33;100.00
46087;BME280;31824;49.648;8.640;2024-02-16T10:15:37;100333.50;;;14.44;100.00
46087;BME280;31824;49.648;8.640;2024-02-16T10:18:39;100337.00;;;14.33;100.00
46087;BME280;31824;49.648;8.640;2024-02-16T10:21:41;100335.97;;;14.31;100.00
46087;BME280;31824;49.648;8.640;2024-02-16T10:24:43;100335.44;;;14.47;100.00
46087;BME280;31824;49.648;8.640;2024-02-16T10:27:47;100341.84;;;14.61;100.00
46087;BME280;31824;49.648;8.640;2024-02-16T10:30:49;100347.50;;;14.65;100.00
46087;BME280;31824;49.648;8.640;2024-02-16T10:33:51;100340.06;;;14.83;100.00
46087;BME280;31824;49.648;8.640;2024-02-16T10:36:55;100344.31;;;15.27;100.00
46087;BME280;31824;49.648;8.640;2024-02-16T10:39:59;100341.19;;;15.45;100.00
46087;BME280;31824;49.648;8.640;2024-02-16T10:43:04;100346.28;;;15.65;100.00
46087;BME280;31824;49.648;8.640;2024-02-16T10:46:07;100343.84;;;15.45;100.00
46087;BME280;31824;49.648;8.640;2024-02-16T10:49:13;100340.50;;;15.24;100.00
46087;BME280;31824;49.648;8.640;2024-02-16T10:52:16;100345.81;;;15.35;100.00
46087;BME280;31824;49.648;8.640;2024-02-16T10:55:19;100344.56;;;15.42;100.00
46087;BME280;31824;49.648;8.640;2024-02-16T10:58:22;100344.91;;;15.59;100.00
46087;BME280;31824;49.648;8.640;2024-02-16T11:01:24;100349.63;;;15.51;100.00
46087;BME280;31824;49.648;8.640;2024-02-16T11:04:36;100346.75;;;15.48;100.00
46087;BME280;31824;49.648;8.640;2024-02-16T11:07:38;100344.56;;;15.42;100.00
46087;BME280;31824;49.648;8.640;2024-02-16T11:10:40;100347.78;;;15.38;100.00
46087;BME280;31824;49.648;8.640;2024-02-16T11:13:43;100354.34;;;15.31;100.00
46087;BME280;31824;49.648;8.640;2024-02-16T11:16:46;100353.19;;;15.40;100.00
46087;BME280;31824;49.648;8.640;2024-02-16T11:19:48;100354.31;;;15.43;100.00
46087;BME280;31824;49.648;8.640;2024-02-16T11:22:51;100350.66;;;15.53;100.00
46087;BME280;31824;49.648;8.640;2024-02-16T11:25:52;100351.31;;;15.62;100.00
46087;BME280;31824;49.648;8.640;2024-02-16T11:28:56;100357.31;;;15.72;100.00
46087;BME280;31824;49.648;8.640;2024-02-16T11:31:58;100357.41;;;15.73;100.00
46087;BME280;31824;49.648;8.640;2024-02-16T11:35:05;100349.03;;;15.91;100.00
46087;BME280;31824;49.648;8.640;2024-02-16T11:38:07;100352.38;;;16.00;100.00
46087;BME280;31824;49.648;8.640;2024-02-16T11:41:09;100347.31;;;16.40;100.00
46087;BME280;31824;49.648;8.640;2024-02-16T11:44:14;100356.34;;;16.56;100.00
46087;BME280;31824;49.648;8.640;2024-02-16T11:47:19;100352.66;;;17.17;100.00
46087;BME280;31824;49.648;8.640;2024-02-16T11:50:20;100349.16;;;17.44;100.00
46087;BME280;31824;49.648;8.640;2024-02-16T11:53:22;100347.63;;;17.74;100.00
46087;BME280;31824;49.648;8.640;2024-02-16T11:56:25;100353.34;;;17.67;100.00
46087;BME280;31824;49.648;8.640;2024-02-16T11:59:29;100350.59;;;17.92;100.00
46087;BME280;31824;49.648;8.640;2024-02-16T12:02:35;100347.00;;;17.78;100.00
46087;BME280;31824;49.648;8.640;2024-02-16T12:05:38;100346.09;;;17.91;100.00
46087;BME280;31824;49.648;8.640;2024-02-16T12:08:40;100350.75;;;18.09;100.00
46087;BME280;31824;49.648;8.640;2024-02-16T12:11:41;100355.16;;;18.08;100.00
46087;BME280;31824;49.648;8.640;2024-02-16T12:14:44;100333.03;;;18.36;100.00
46087;BME280;31824;49.648;8.640;2024-02-16T12:17:46;100344.09;;;18.15;100.00
46087;BME280;31824;49.648;8.640;2024-02-16T12:20:58;100342.53;;;17.50;100.00
46087;BME280;31824;49.648;8.640;2024-02-16T12:24:01;100338.22;;;17.79;100.00
46087;BME280;31824;49.648;8.640;2024-02-16T12:27:03;100335.75;;;17.82;100.00
46087;BME280;31824;49.648;8.640;2024-02-16T12:30:07;100332.91;;;17.79;100.00
46087;BME280;31824;49.648;8.640;2024-02-16T12:33:10;100338.84;;;17.62;100.00
46087;BME280;31824;49.648;8.640;2024-02-16T12:36:12;100338.63;;;17.59;100.00
46087;BME280;31824;49.648;8.640;2024-02-16T12:39:13;100346.50;;;17.57;100.00
46087;BME280;31824;49.648;8.640;2024-02-16T12:42:17;100339.53;;;17.72;100.00
46087;BME280;31824;49.648;8.640;2024-02-16T12:45:20;100345.34;;;17.27;100.00
46087;BME280;31824;49.648;8.640;2024-02-16T12:48:22;100342.00;;;17.83;100.00
46087;BME280;31824;49.648;8.640;2024-02-16T12:51:25;100344.13;;;17.88;100.00
46087;BME280;31824;49.648;8.640;2024-02-16T12:54:27;100347.94;;;17.92;100.00
46087;BME280;31824;49.648;8.640;2024-02-16T12:57:28;100337.94;;;17.61;100.00
46087;BME280;31824;49.648;8.640;2024-02-16T13:00:32;100347.41;;;18.39;100.00
46087;BME280;31824;49.648;8.640;2024-02-16T13:03:34;100351.38;;;19.03;100.00
46087;BME280;31824;49.648;8.640;2024-02-16T13:06:36;100344.06;;;18.85;100.00
46087;BME280;31824;49.648;8.640;2024-02-16T13:09:39;100341.22;;;18.54;100.00
46087;BME280;31824;49.648;8.640;2024-02-16T13:12:41;100342.84;;;18.23;100.00
46087;BME280;31824;49.648;8.640;2024-02-16T13:15:46;100338.09;;;18.46;100.00
46087;BME280;31824;49.648;8.640;2024-02-16T13:18:48;100347.00;;;18.47;100.00
46087;BME280;31824;49.648;8.640;2024-02-16T13:21:51;100352.06;;;18.15;100.00
46087;BME280;31824;49.648;8.640;2024-02-16T13:24:53;100347.00;;;18.05;100.00
46087;BME280;31824;49.648;8.640;2024-02-16T13:27:54;100351.56;;;18.49;100.00
46087;BME280;31824;49.648;8.640;2024-02-16T13:30:57;100348.13;;;19.68;100.00
46087;BME280;31824;49.648;8.640;2024-02-16T13:34:00;100346.63;;;19.27;100.00
46087;BME280;31824;49.648;8.640;2024-02-16T13:37:03;100351.81;;;19.26;100.00
46087;BME280;31824;49.648;8.640;2024-02-16T13:40:05;100353.53;;;18.67;100.00
46087;BME280;31824;49.648;8.640;2024-02-16T13:43:09;100352.38;;;18.77;100.00
46087;BME280;31824;49.648;8.640;2024-02-16T13:46:12;100350.56;;;18.47;100.00
46087;BME280;31824;49.648;8.640;2024-02-16T13:49:14;100356.66;;;18.31;100.00
46087;BME280;31824;49.648;8.640;2024-02-16T13:52:16;100362.53;;;18.12;100.00
46087;BME280;31824;49.648;8.640;2024-02-16T13:55:18;100353.53;;;17.83;100.00
46087;BME280;31824;49.648;8.640;2024-02-16T13:58:20;100350.16;;;17.86;100.00
46087;BME280;31824;49.648;8.640;2024-02-16T14:01:23;100358.03;;;17.84;100.00
46087;BME280;31824;49.648;8.640;2024-02-16T14:04:25;100358.44;;;17.64;100.00
46087;BME280;31824;49.648;8.640;2024-02-16T14:07:28;100362.72;;;17.48;100.00
46087;BME280;31824;49.648;8.640;2024-02-16T14:10:36;100365.28;;;17.47;100.00
46087;BME280;31824;49.648;8.640;2024-02-16T14:13:38;100369.97;;;17.37;100.00
46087;BME280;31824;49.648;8.640;2024-02-16T14:16:41;100376.94;;;17.35;100.00
46087;BME280;31824;49.648;8.640;2024-02-16T14:19:43;100379.81;;;17.13;100.00
46087;BME280;31824;49.648;8.640;2024-02-16T14:22:45;100373.59;;;17.13;100.00
46087;BME280;31824;49.648;8.640;2024-02-16T14:25:46;100393.09;;;17.13;100.00
46087;BME280;31824;49.648;8.640;2024-02-16T14:28:48;100388.88;;;17.03;100.00
46087;BME280;31824;49.648;8.640;2024-02-16T14:31:51;100397.78;;;17.04;100.00
46087;BME280;31824;49.648;8.640;2024-02-16T14:34:53;100409.28;;;16.91;100.00
46087;BME280;31824;49.648;8.640;2024-02-16T14:37:55;100405.13;;;16.83;100.00
46087;BME280;31824;49.648;8.640;2024-02-16T14:40:57;100409.28;;;16.79;100.00
46087;BME280;31824;49.648;8.640;2024-02-16T14:43:59;100422.25;;;16.63;100.00
46087;BME280;31824;49.648;8.640;2024-02-16T14:47:03;100418.03;;;16.53;100.00
46087;BME280;31824;49.648;8.640;2024-02-16T14:50:06;100423.03;;;16.36;100.00
46087;BME280;31824;49.648;8.640;2024-02-16T14:53:09;100424.31;;;16.30;100.00
46087;BME280;31824;49.648;8.640;2024-02-16T14:56:11;100440.72;;;16.12;100.00
46087;BME280;31824;49.648;8.640;2024-02-16T14:59:13;100449.72;;;15.91;100.00
46087;BME280;31824;49.648;8.640;2024-02-16T15:02:16;100459.44;;;15.56;100.00
46087;BME280;31824;49.648;8.640;2024-02-16T15:05:18;100469.00;;;15.42;100.00
46087;BME280;31824;49.648;8.640;2024-02-16T15:08:22;100465.50;;;15.31;100.00
46087;BME280;31824;49.648;8.640;2024-02-16T15:11:24;100461.63;;;15.16;100.00
46087;BME280;31824;49.648;8.640;2024-02-16T15:14:25;100469.69;;;15.17;100.00
46087;BME280;31824;49.648;8.640;2024-02-16T15:17:29;100466.94;;;15.16;100.00
46087;BME280;31824;49.648;8.640;2024-02-16T15:20:31;100464.75;;;15.10;100.00
46087;BME280;31824;49.648;8.640;2024-02-16T15:23:33;100467.16;;;15.07;100.00
46087;BME280;31824;49.648;8.640;2024-02-16T15:26:35;100472.06;;;15.02;100.00
46087;BME280;31824;49.648;8.640;2024-02-16T15:29:37;100469.06;;;14.98;100.00
46087;BME280;31824;49.648;8.640;2024-02-16T15:32:40;100484.31;;;14.90;100.00
46087;BME280;31824;49.648;8.640;2024-02-16T15:35:42;100484.88;;;14.86;100.00
46087;BME280;31824;49.648;8.640;2024-02-16T15:38:43;100483.47;;;14.79;100.00
46087;BME280;31824;49.648;8.640;2024-02-16T15:41:45;100487.88;;;14.68;100.00
46087;BME280;31824;49.648;8.640;2024-02-16T15:44:48;100485.78;;;14.64;100.00
46087;BME280;31824;49.648;8.640;2024-02-16T15:47:55;100501.56;;;14.52;100.00